Time;durP1;ratioP1;P1;durP2;ratioP2;P2;SDS_P1;SDS_P2;PMS_P1;PMS_P2;Temp;Humidity;BMP_temperature;BMP_pressure;BME280_temperature;BME280_humidity;BME280_pressure;Samples;Min_cycle;Max_cycle;Signal;HPM_P1;HPM_P2
2022/11/23 00:01:54;;;;;;;0.30;0.30;;;;;;;7.54;100.00;97956.53;5112508;28;20216;-58
2022/11/23 00:04:21;;;;;;;0.60;0.60;;;;;;;7.49;100.00;97941.63;5112802;28;20213;-63
2022/11/23 00:06:49;;;;;;;0.27;0.27;;;;;;;7.52;100.00;97945.66;5112499;28;20202;-63
2022/11/23 00:09:16;;;;;;;0.30;0.30;;;;;;;7.47;100.00;97944.28;5112756;27;20217;-62
2022/11/23 00:11:42;;;;;;;0.37;0.37;;;;;;;7.49;100.00;97947.50;5112099;28;20583;-58
2022/11/23 00:14:09;;;;;;;0.30;0.30;;;;;;;7.46;100.00;97946.94;5112563;28;20594;-63
2022/11/23 00:16:36;;;;;;;0.20;0.20;;;;;;;7.51;100.00;97949.16;5112386;28;20569;-62
2022/11/23 00:19:03;;;;;;;0.33;0.33;;;;;;;7.51;100.00;97949.16;5112566;28;20664;-58
2022/11/23 00:21:31;;;;;;;0.60;0.30;;;;;;;7.44;100.00;97954.69;5112174;28;20205;-63
2022/11/23 00:23:59;;;;;;;0.40;0.40;;;;;;;7.45;100.00;97945.34;5112060;28;20217;-64
2022/11/23 00:26:26;;;;;;;0.50;0.50;;;;;;;7.43;100.00;97942.91;5112229;28;20673;-57
2022/11/23 00:28:53;;;;;;;0.37;0.37;;;;;;;7.56;100.00;97947.03;5112203;28;20217;-63
2022/11/23 00:31:21;;;;;;;0.20;0.20;;;;;;;7.39;100.00;97949.16;5112208;28;20220;-63
2022/11/23 00:33:51;;;;;;;0.40;0.40;;;;;;;7.43;100.00;97932.72;5111964;28;20225;-63
2022/11/23 00:36:19;;;;;;;0.80;0.80;;;;;;;7.58;100.00;97948.53;5111879;28;20580;-63
2022/11/23 00:38:47;;;;;;;0.10;0.10;;;;;;;7.55;100.00;97936.06;5112094;28;20221;-63
2022/11/23 00:41:17;;;;;;;0.60;0.47;;;;;;;7.48;100.00;97940.81;5111894;28;20207;-57
2022/11/23 00:43:44;;;;;;;0.40;0.40;;;;;;;7.37;100.00;97940.84;5111792;27;20220;-63
2022/11/23 00:46:14;;;;;;;0.60;0.50;;;;;;;7.57;100.00;97949.47;5111780;27;20201;-57
2022/11/23 00:48:41;;;;;;;0.30;0.17;;;;;;;7.45;100.00;97928.34;5111916;27;20225;-63
2022/11/23 00:51:10;;;;;;;0.30;0.30;;;;;;;7.40;100.00;97911.81;5111641;28;20236;-57
2022/11/23 00:53:38;;;;;;;0.37;0.37;;;;;;;7.51;100.00;97908.44;5111617;28;20229;-63
2022/11/23 00:56:05;;;;;;;0.83;0.50;;;;;;;7.44;100.00;97913.19;5112085;28;20280;-63
2022/11/23 00:58:34;;;;;;;0.77;0.63;;;;;;;7.44;100.00;97918.28;5111185;28;20217;-63
2022/11/23 01:01:04;;;;;;;0.20;0.20;;;;;;;7.37;100.00;97920.50;5111700;28;20225;-57
2022/11/23 01:03:31;;;;;;;0.57;0.57;;;;;;;7.33;100.00;97925.94;5111328;28;20650;-57
2022/11/23 01:06:02;;;;;;;0.47;0.23;;;;;;;7.30;100.00;97927.00;5111209;28;20223;-63
2022/11/23 01:08:29;;;;;;;0.90;0.20;;;;;;;7.41;100.00;97924.41;5111469;28;20221;-58
2022/11/23 01:10:59;;;;;;;0.20;0.20;;;;;;;7.36;100.00;97921.44;5110962;28;20209;-64
2022/11/23 01:13:26;;;;;;;0.20;0.20;;;;;;;7.36;100.00;97910.44;5111178;28;20316;-64
2022/11/23 01:15:54;;;;;;;0.10;0.10;;;;;;;7.33;100.00;97903.03;5111047;28;20232;-58
2022/11/23 01:18:21;;;;;;;0.70;0.53;;;;;;;7.35;100.00;97899.47;5111056;28;20710;-63
2022/11/23 01:20:48;;;;;;;0.20;0.20;;;;;;;7.30;100.00;97896.50;5111091;28;20232;-63
2022/11/23 01:23:15;;;;;;;0.53;0.53;;;;;;;7.33;100.00;97895.41;5110409;28;20278;-58
2022/11/23 01:25:42;;;;;;;0.63;0.63;;;;;;;7.39;100.00;97884.78;5110948;28;20209;-63
2022/11/23 01:28:09;;;;;;;0.20;0.20;;;;;;;7.37;100.00;97887.44;5111111;28;20217;-63
2022/11/23 01:30:35;;;;;;;0.27;0.27;;;;;;;7.39;100.00;97888.13;5110937;28;20205;-63
2022/11/23 01:33:04;;;;;;;0.20;0.20;;;;;;;7.41;100.00;97888.81;5110862;28;20244;-63
2022/11/23 01:35:31;;;;;;;0.73;0.33;;;;;;;7.40;100.00;97892.28;5110823;28;20262;-57
2022/11/23 01:37:58;;;;;;;0.50;0.50;;;;;;;7.41;100.00;97888.81;5110632;28;20618;-63
2022/11/23 01:40:25;;;;;;;0.17;0.17;;;;;;;7.41;100.00;97882.91;5110628;28;20228;-57
2022/11/23 01:42:54;;;;;;;0.07;0.07;;;;;;;7.35;100.00;97879.13;5110607;28;20212;-57
2022/11/23 01:45:37;;;;;;;0.20;0.20;;;;;;;7.40;100.00;97871.16;5110946;28;20580;-63
2022/11/23 01:48:11;;;;;;;0.10;0.10;;;;;;;7.39;100.00;97862.72;5110788;28;20220;-57
2022/11/23 01:50:40;;;;;;;0.07;0.07;;;;;;;7.40;100.00;97859.22;5110616;28;20197;-58
2022/11/23 01:53:07;;;;;;;0.37;0.37;;;;;;;7.39;100.00;97870.34;5110559;28;20651;-58
2022/11/23 01:55:34;;;;;;;0.27;0.27;;;;;;;7.45;100.00;97864.78;5110805;28;20657;-64
2022/11/23 01:58:03;;;;;;;0.80;0.47;;;;;;;7.41;100.00;97868.47;5110419;28;20754;-63
2022/11/23 02:00:29;;;;;;;0.30;0.30;;;;;;;7.34;100.00;97861.47;5110644;28;20341;-57
2022/11/23 02:02:58;;;;;;;0.27;0.27;;;;;;;7.55;100.00;97866.59;5110553;28;20201;-57
2022/11/23 02:05:32;;;;;;;0.20;0.20;;;;;;;7.46;100.00;97863.84;5110323;28;20601;-58
2022/11/23 02:08:01;;;;;;;0.70;0.70;;;;;;;7.41;100.00;97858.28;5110081;28;20694;-63
2022/11/23 02:10:30;;;;;;;0.63;0.60;;;;;;;7.32;100.00;97853.94;5110276;28;20652;-63
2022/11/23 02:13:01;;;;;;;0.23;0.23;;;;;;;7.38;100.00;97856.00;5110199;28;20254;-58
2022/11/23 02:15:28;;;;;;;0.20;0.20;;;;;;;7.38;100.00;97852.66;5110292;28;20596;-57
2022/11/23 02:17:57;;;;;;;0.20;0.20;;;;;;;7.41;100.00;97843.03;5110111;28;20730;-57
2022/11/23 02:20:23;;;;;;;0.10;0.10;;;;;;;7.39;100.00;97844.91;5110372;28;20719;-58
2022/11/23 02:23:01;;;;;;;0.30;0.23;;;;;;;7.45;100.00;97854.59;5110204;28;20201;-64
2022/11/23 02:25:36;;;;;;;0.20;0.20;;;;;;;7.45;100.00;97848.72;5110425;28;20201;-63
2022/11/23 02:28:05;;;;;;;0.30;0.30;;;;;;;7.48;100.00;97843.38;5110235;28;20711;-57
2022/11/23 02:30:34;;;;;;;0.40;0.40;;;;;;;7.50;100.00;97841.50;5110251;28;20204;-63
2022/11/23 02:33:04;;;;;;;0.30;0.30;;;;;;;7.51;100.00;97848.22;5110081;28;20221;-57
2022/11/23 02:35:31;;;;;;;0.30;0.30;;;;;;;7.55;100.00;97843.69;5111026;28;20300;-63
2022/11/23 02:37:59;;;;;;;0.77;0.70;;;;;;;7.53;100.00;97840.44;5114359;28;20572;-61
2022/11/23 02:40:31;;;;;;;0.30;0.30;;;;;;;7.48;100.00;97838.28;5114126;28;20251;-57
2022/11/23 02:42:58;;;;;;;0.20;0.20;;;;;;;7.43;100.00;97831.00;5114355;28;20208;-64
2022/11/23 02:45:36;;;;;;;0.37;0.37;;;;;;;7.52;100.00;97833.75;5114083;28;20204;-57
2022/11/23 02:48:03;;;;;;;0.33;0.33;;;;;;;7.55;100.00;97830.97;5114482;28;20228;-64
2022/11/23 02:50:30;;;;;;;0.17;0.17;;;;;;;7.60;100.00;97836.50;5113958;28;20262;-57
2022/11/23 02:52:57;;;;;;;0.70;0.70;;;;;;;7.55;100.00;97838.59;5113875;27;20258;-58
2022/11/23 02:55:24;;;;;;;2.43;0.83;;;;;;;7.56;100.00;97840.22;5113923;28;20193;-57
2022/11/23 02:57:51;;;;;;;0.30;0.30;;;;;;;7.49;100.00;97830.53;5113801;28;20194;-58
2022/11/23 03:00:18;;;;;;;0.20;0.20;;;;;;;7.46;100.00;97825.69;5114255;28;20227;-63
2022/11/23 03:02:46;;;;;;;0.40;0.40;;;;;;;7.53;100.00;97830.28;5113744;28;20208;-64
2022/11/23 03:05:13;;;;;;;0.50;0.50;;;;;;;7.49;100.00;97835.59;5113908;28;20201;-63
2022/11/23 03:07:40;;;;;;;0.17;0.17;;;;;;;7.61;100.00;97840.66;5113628;28;20201;-57
2022/11/23 03:10:09;;;;;;;0.30;0.27;;;;;;;7.55;100.00;97844.50;5113779;28;20201;-58
2022/11/23 03:12:35;;;;;;;2.77;0.93;;;;;;;7.56;100.00;97845.28;5113602;28;20668;-57
2022/11/23 03:15:02;;;;;;;0.50;0.40;;;;;;;7.53;100.00;97838.72;5113601;28;20232;-62
2022/11/23 03:17:29;;;;;;;0.47;0.47;;;;;;;7.50;100.00;97838.97;5113300;28;20256;-57
2022/11/23 03:19:57;;;;;;;1.00;0.43;;;;;;;7.43;100.00;97836.09;5113626;28;20306;-57
2022/11/23 03:22:24;;;;;;;0.30;0.30;;;;;;;7.47;100.00;97842.53;5113181;28;20193;-57
2022/11/23 03:24:50;;;;;;;0.50;0.50;;;;;;;7.38;100.00;97845.81;5113467;28;20636;-58
2022/11/23 03:27:18;;;;;;;0.47;0.43;;;;;;;7.49;100.00;97853.41;5113311;28;20203;-64
2022/11/23 03:29:44;;;;;;;2.03;0.50;;;;;;;7.52;100.00;97849.81;5113404;28;20225;-58
2022/11/23 03:32:11;;;;;;;2.53;0.80;;;;;;;7.64;100.00;97848.03;5113252;27;20194;-58
2022/11/23 03:34:38;;;;;;;0.10;0.10;;;;;;;7.66;100.00;97851.28;5113147;28;20228;-62
2022/11/23 03:37:06;;;;;;;0.90;0.87;;;;;;;7.63;100.00;97841.34;5113203;28;20673;-57
2022/11/23 03:39:33;;;;;;;0.87;0.50;;;;;;;7.61;100.00;97844.00;5113540;28;20217;-63
2022/11/23 03:42:00;;;;;;;0.13;0.13;;;;;;;7.59;100.00;97852.69;5113142;28;20657;-63
2022/11/23 03:44:26;;;;;;;0.50;0.50;;;;;;;7.58;100.00;97853.63;5113071;28;20224;-63
2022/11/23 03:46:53;;;;;;;0.57;0.57;;;;;;;7.45;100.00;97859.69;5112258;28;20197;-64
2022/11/23 03:49:20;;;;;;;0.53;0.53;;;;;;;7.44;100.00;97858.06;5112963;28;20256;-63
2022/11/23 03:51:47;;;;;;;0.20;0.20;;;;;;;7.48;100.00;97849.25;5112714;28;20665;-57
2022/11/23 03:54:15;;;;;;;0.20;0.20;;;;;;;7.49;100.00;97855.97;5112890;28;20282;-63
2022/11/23 03:56:41;;;;;;;0.30;0.30;;;;;;;7.45;100.00;97853.78;5112661;28;20217;-57
2022/11/23 03:59:08;;;;;;;0.47;0.47;;;;;;;7.38;100.00;97845.81;5112869;28;20236;-57
2022/11/23 04:01:35;;;;;;;0.93;0.70;;;;;;;7.38;100.00;97853.44;5112772;28;20309;-57
2022/11/23 04:04:02;;;;;;;0.50;0.30;;;;;;;7.34;100.00;97849.53;5112589;28;20221;-58
2022/11/23 04:06:29;;;;;;;0.33;0.33;;;;;;;7.34;100.00;97841.91;5112358;28;20739;-58
2022/11/23 04:08:56;;;;;;;1.20;0.37;;;;;;;7.40;100.00;97841.44;5112492;28;20221;-64
2022/11/23 04:11:24;;;;;;;0.30;0.30;;;;;;;7.37;100.00;97836.59;5112152;28;20197;-57
2022/11/23 04:13:51;;;;;;;1.37;0.87;;;;;;;7.34;100.00;97847.00;5112589;28;20704;-58
2022/11/23 04:16:17;;;;;;;0.57;0.43;;;;;;;7.32;100.00;97833.59;5112292;28;20201;-63
2022/11/23 04:18:44;;;;;;;0.50;0.50;;;;;;;7.28;100.00;97823.81;5112247;28;20225;-64
2022/11/23 04:21:11;;;;;;;0.73;0.73;;;;;;;7.25;100.00;97825.66;5112066;28;20224;-63
2022/11/23 04:23:38;;;;;;;0.30;0.30;;;;;;;7.26;100.00;97827.25;5112681;28;20225;-63
2022/11/23 04:26:05;;;;;;;0.67;0.60;;;;;;;7.28;100.00;97827.16;5112397;28;20681;-57
2022/11/23 04:28:33;;;;;;;0.60;0.60;;;;;;;7.23;100.00;97824.97;5112038;28;20213;-58
2022/11/23 04:30:59;;;;;;;0.40;0.40;;;;;;;7.24;100.00;97825.75;5112126;28;20208;-63
2022/11/23 04:33:26;;;;;;;0.73;0.73;;;;;;;7.20;100.00;97824.41;5112175;28;20225;-63
2022/11/23 04:35:53;;;;;;;0.37;0.37;;;;;;;7.14;100.00;97825.69;5111945;28;20197;-63
2022/11/23 04:38:20;;;;;;;0.07;0.07;;;;;;;7.17;100.00;97829.72;5111766;27;20225;-64
2022/11/23 04:40:48;;;;;;;0.43;0.43;;;;;;;7.09;100.00;97819.34;5111930;28;20229;-63
2022/11/23 04:43:15;;;;;;;0.60;0.60;;;;;;;7.25;100.00;97822.31;5111795;28;20312;-63
2022/11/23 04:45:43;;;;;;;1.40;0.40;;;;;;;7.21;100.00;97826.00;5111762;28;20718;-64
2022/11/23 04:48:10;;;;;;;0.33;0.33;;;;;;;7.22;100.00;97828.44;5112044;27;20668;-64
2022/11/23 04:50:37;;;;;;;1.20;0.83;;;;;;;7.15;100.00;97841.75;5111865;28;20205;-57
2022/11/23 04:53:04;;;;;;;0.00;0.00;;;;;;;7.15;100.00;97836.66;5111608;28;20239;-57
2022/11/23 04:55:31;;;;;;;0.50;0.30;;;;;;;7.12;100.00;97840.25;5111556;27;20201;-58
2022/11/23 04:57:58;;;;;;;0.80;0.80;;;;;;;7.11;100.00;97841.19;5111097;28;20282;-58
2022/11/23 05:00:25;;;;;;;0.63;0.63;;;;;;;7.26;100.00;97831.53;5111181;28;20286;-63
2022/11/23 05:02:53;;;;;;;0.33;0.30;;;;;;;7.26;100.00;97821.38;5111348;28;20228;-63
2022/11/23 05:05:19;;;;;;;0.40;0.40;;;;;;;7.31;100.00;97811.66;5111346;28;20734;-63
2022/11/23 05:07:46;;;;;;;0.57;0.43;;;;;;;7.31;100.00;97819.28;5111412;28;20645;-58
2022/11/23 05:10:13;;;;;;;0.40;0.40;;;;;;;7.29;100.00;97822.88;5111229;28;20638;-57
2022/11/23 05:12:40;;;;;;;0.17;0.17;;;;;;;7.13;100.00;97813.91;5111170;28;20238;-57
2022/11/23 05:15:07;;;;;;;2.40;0.30;;;;;;;7.27;100.00;97815.34;5111401;28;20201;-63
2022/11/23 05:17:34;;;;;;;0.67;0.60;;;;;;;7.26;100.00;97821.38;5111064;28;20190;-64
2022/11/23 05:20:03;;;;;;;0.67;0.67;;;;;;;7.26;100.00;97829.00;5111226;28;20224;-57
2022/11/23 05:22:29;;;;;;;1.70;0.80;;;;;;;7.27;100.00;97845.84;5110877;28;20260;-58
2022/11/23 05:24:56;;;;;;;0.77;0.63;;;;;;;7.31;100.00;97842.16;5110870;28;20217;-57
2022/11/23 05:27:23;;;;;;;0.30;0.30;;;;;;;7.33;100.00;97845.41;5110887;28;20198;-63
2022/11/23 05:29:50;;;;;;;0.40;0.40;;;;;;;7.34;100.00;97844.47;5110944;28;20213;-63
2022/11/23 05:32:17;;;;;;;0.53;0.50;;;;;;;7.37;100.00;97840.88;5110776;28;20197;-57
2022/11/23 05:34:43;;;;;;;0.70;0.70;;;;;;;7.42;100.00;97834.50;5111103;27;20232;-57
2022/11/23 05:37:12;;;;;;;0.93;0.70;;;;;;;7.42;100.00;97833.69;5110955;28;20669;-57
2022/11/23 05:39:38;;;;;;;0.70;0.70;;;;;;;7.39;100.00;97837.28;5110687;28;20224;-63
2022/11/23 05:42:05;;;;;;;0.47;0.47;;;;;;;7.38;100.00;97838.19;5110708;28;20225;-57
2022/11/23 05:44:32;;;;;;;0.40;0.40;;;;;;;7.31;100.00;97847.25;5110810;28;20526;-63
2022/11/23 05:46:59;;;;;;;0.77;0.70;;;;;;;7.41;100.00;97852.41;5110515;28;20692;-60
2022/11/23 05:49:26;;;;;;;0.50;0.50;;;;;;;7.45;100.00;97859.69;5110564;28;20736;-64
2022/11/23 05:51:53;;;;;;;1.30;1.20;;;;;;;7.44;100.00;97858.06;5110633;28;20658;-57
2022/11/23 05:54:21;;;;;;;0.43;0.43;;;;;;;7.44;100.00;97863.13;5110293;28;20224;-63
2022/11/23 05:56:48;;;;;;;0.77;0.77;;;;;;;7.40;100.00;97871.94;5110345;28;20212;-57
2022/11/23 05:59:15;;;;;;;1.83;1.63;;;;;;;7.54;100.00;97873.41;5110713;27;20262;-63
2022/11/23 06:01:42;;;;;;;0.50;0.40;;;;;;;7.47;100.00;97878.16;5110239;28;20699;-63
2022/11/23 06:04:08;;;;;;;0.50;0.50;;;;;;;7.38;100.00;97873.78;5110267;28;20716;-64
2022/11/23 06:06:35;;;;;;;0.80;0.80;;;;;;;7.44;100.00;97875.84;5110196;28;20262;-63
2022/11/23 06:09:02;;;;;;;0.60;0.60;;;;;;;7.48;100.00;97879.78;5110554;28;20213;-57
2022/11/23 06:11:31;;;;;;;1.73;0.80;;;;;;;7.53;100.00;97881.16;5109913;28;20216;-58
2022/11/23 06:13:58;;;;;;;2.50;0.93;;;;;;;7.46;100.00;97886.72;5110069;28;20225;-63
2022/11/23 06:16:25;;;;;;;0.80;0.80;;;;;;;7.46;100.00;97891.81;5110102;28;20299;-57
2022/11/23 06:18:51;;;;;;;0.40;0.40;;;;;;;7.39;100.00;97890.69;5110240;28;20221;-64
2022/11/23 06:21:18;;;;;;;0.23;0.23;;;;;;;7.33;100.00;97903.88;5110086;28;20221;-63
2022/11/23 06:23:47;;;;;;;0.50;0.50;;;;;;;7.49;100.00;97901.72;5109964;28;20221;-57
2022/11/23 06:26:14;;;;;;;0.10;0.10;;;;;;;7.62;100.00;97900.75;5110194;28;20200;-63
2022/11/23 06:28:42;;;;;;;0.30;0.30;;;;;;;7.61;100.00;97888.97;5110099;28;20992;-58
2022/11/23 06:31:09;;;;;;;1.00;0.97;;;;;;;7.48;100.00;97887.41;5110272;28;20276;-57
2022/11/23 06:33:36;;;;;;;0.57;0.57;;;;;;;7.56;100.00;97875.81;5110124;28;20229;-63
2022/11/23 06:36:03;;;;;;;0.37;0.37;;;;;;;7.57;100.00;97877.44;5110126;28;20197;-63
2022/11/23 06:38:30;;;;;;;3.10;1.90;;;;;;;7.48;100.00;97879.78;5110234;28;20224;-58
2022/11/23 06:40:58;;;;;;;1.03;0.83;;;;;;;7.52;100.00;97893.06;5109810;28;20232;-63
2022/11/23 06:43:25;;;;;;;0.83;0.83;;;;;;;7.55;100.00;97894.56;5109763;28;20248;-63
2022/11/23 06:45:54;;;;;;;1.17;0.50;;;;;;;7.53;100.00;97878.59;5109946;28;20295;-63
2022/11/23 06:48:20;;;;;;;0.30;0.30;;;;;;;7.47;100.00;97880.69;5109834;28;20649;-58
2022/11/23 06:50:47;;;;;;;0.73;0.60;;;;;;;7.53;100.00;97887.03;5109834;28;20197;-57
2022/11/23 06:53:14;;;;;;;0.40;0.40;;;;;;;7.51;100.00;97896.53;5109821;28;20217;-58
2022/11/23 06:55:41;;;;;;;0.80;0.80;;;;;;;7.63;100.00;97897.31;5110130;28;20212;-57
2022/11/23 06:58:09;;;;;;;0.80;0.70;;;;;;;7.66;100.00;97902.94;5109762;28;20839;-57
2022/11/23 07:00:36;;;;;;;0.67;0.67;;;;;;;7.79;100.00;97891.78;5109862;28;20208;-64
2022/11/23 07:03:04;;;;;;;0.73;0.73;;;;;;;7.74;100.00;97891.34;5109850;28;20221;-58
2022/11/23 07:05:32;;;;;;;0.73;0.70;;;;;;;7.72;100.00;97887.19;5109991;28;20553;-63
2022/11/23 07:07:59;;;;;;;0.40;0.40;;;;;;;7.82;100.00;97887.25;5109959;28;20661;-57
2022/11/23 07:10:25;;;;;;;0.30;0.30;;;;;;;7.91;100.00;97881.47;5109591;28;20202;-58
2022/11/23 07:12:52;;;;;;;0.80;0.80;;;;;;;7.94;100.00;97886.28;5109630;28;20722;-58
2022/11/23 07:15:19;;;;;;;1.33;1.27;;;;;;;8.03;100.00;97887.28;5109661;28;20198;-58
2022/11/23 07:17:46;;;;;;;1.10;0.93;;;;;;;7.88;100.00;97891.06;5109827;28;20641;-64
2022/11/23 07:20:14;;;;;;;1.93;0.90;;;;;;;8.02;100.00;97893.28;5109839;28;20210;-63
2022/11/23 07:22:41;;;;;;;2.20;0.87;;;;;;;8.07;100.00;97885.31;5111845;28;20232;-57
2022/11/23 07:25:10;;;;;;;0.60;0.60;;;;;;;8.04;100.00;97880.47;5113389;28;20201;-63
2022/11/23 07:27:37;;;;;;;1.00;0.93;;;;;;;8.09;100.00;97880.91;5113455;28;20197;-58
2022/11/23 07:30:04;;;;;;;1.07;1.00;;;;;;;8.02;100.00;97887.41;5113623;28;20639;-57
2022/11/23 07:32:31;;;;;;;0.53;0.53;;;;;;;8.14;100.00;97886.41;5113536;28;20197;-63
2022/11/23 07:34:57;;;;;;;1.40;1.30;;;;;;;8.21;100.00;97882.44;5113193;28;20577;-63
2022/11/23 07:37:26;;;;;;;0.23;0.23;;;;;;;8.20;100.00;97875.72;5113024;28;20258;-63
2022/11/23 07:39:52;;;;;;;0.70;0.70;;;;;;;8.21;100.00;97877.34;5113436;28;20575;-64
2022/11/23 07:42:19;;;;;;;0.40;0.40;;;;;;;8.35;100.00;97879.56;5113025;28;20316;-58
2022/11/23 07:44:46;;;;;;;0.97;0.97;;;;;;;8.41;100.00;97888.47;5112910;28;20305;-63
2022/11/23 07:47:13;;;;;;;0.83;0.83;;;;;;;8.50;100.00;97895.34;5112964;28;20200;-57
2022/11/23 07:49:40;;;;;;;0.53;0.53;;;;;;;8.38;100.00;97893.78;5112849;28;20216;-58
2022/11/23 07:52:06;;;;;;;0.70;0.70;;;;;;;8.51;100.00;97898.69;5112956;28;20197;-58
2022/11/23 07:54:34;;;;;;;0.20;0.20;;;;;;;8.58;100.00;97909.97;5112762;28;20604;-64
2022/11/23 07:57:01;;;;;;;0.80;0.70;;;;;;;8.53;100.00;97907.03;5112741;28;20190;-57
2022/11/23 07:59:28;;;;;;;0.63;0.63;;;;;;;8.57;100.00;97898.19;5112750;28;20282;-64
2022/11/23 08:01:55;;;;;;;0.67;0.67;;;;;;;8.67;100.00;97905.88;5112442;28;20319;-63
2022/11/23 08:04:22;;;;;;;0.70;0.70;;;;;;;8.76;100.00;97913.56;5112638;28;20225;-64
2022/11/23 08:06:48;;;;;;;1.20;1.10;;;;;;;8.78;100.00;97916.78;5112414;28;20201;-57
2022/11/23 08:09:15;;;;;;;2.20;0.90;;;;;;;8.84;100.00;97916.28;5112846;27;20221;-64
2022/11/23 08:11:43;;;;;;;0.97;0.80;;;;;;;8.88;100.00;97909.19;5112287;28;20201;-57
2022/11/23 08:14:10;;;;;;;1.17;0.97;;;;;;;8.80;100.00;97916.66;5112271;28;20781;-64
2022/11/23 08:16:37;;;;;;;1.63;1.17;;;;;;;8.81;100.00;97931.84;5112186;28;20201;-57
2022/11/23 08:19:04;;;;;;;1.50;0.93;;;;;;;8.99;100.00;97918.47;5112244;28;20289;-57
2022/11/23 08:21:31;;;;;;;1.00;0.90;;;;;;;8.98;100.00;97922.75;5112153;28;20229;-58
2022/11/23 08:23:57;;;;;;;1.03;0.87;;;;;;;9.06;100.00;97917.00;5112145;27;20228;-57
2022/11/23 08:26:24;;;;;;;2.23;1.03;;;;;;;9.15;100.00;97934.06;5112436;28;20208;-64
2022/11/23 08:28:52;;;;;;;1.17;1.07;;;;;;;9.17;100.00;97929.66;5112145;28;20266;-57
2022/11/23 08:31:19;;;;;;;1.37;0.93;;;;;;;9.16;100.00;97928.06;5112079;28;20205;-64
2022/11/23 08:33:46;;;;;;;1.80;0.97;;;;;;;9.09;100.00;97929.50;5112066;28;20221;-58
2022/11/23 08:36:13;;;;;;;0.50;0.50;;;;;;;9.05;100.00;97933.25;5111957;28;20197;-64
2022/11/23 08:38:40;;;;;;;1.57;0.90;;;;;;;9.17;100.00;97922.00;5112062;28;20228;-58
2022/11/23 08:41:06;;;;;;;0.87;0.83;;;;;;;9.19;100.00;97935.44;5111874;28;20196;-63
2022/11/23 08:43:34;;;;;;;1.40;1.30;;;;;;;9.15;100.00;97923.88;5112064;28;20693;-64
2022/11/23 08:46:03;;;;;;;1.17;1.07;;;;;;;9.24;100.00;97915.44;5111816;28;20697;-65
2022/11/23 08:48:30;;;;;;;4.27;1.70;;;;;;;9.39;100.00;97910.75;5111878;28;20304;-57
2022/11/23 08:50:59;;;;;;;2.17;1.57;;;;;;;9.44;100.00;97897.63;5111877;28;20197;-58
2022/11/23 08:53:26;;;;;;;1.57;1.00;;;;;;;9.25;100.00;97899.22;5111578;28;20264;-58
2022/11/23 08:55:53;;;;;;;1.20;1.10;;;;;;;9.40;100.00;97906.50;5111643;28;20197;-64
2022/11/23 08:58:20;;;;;;;1.30;1.27;;;;;;;9.46;100.00;97921.28;5111313;27;20224;-57
2022/11/23 09:00:46;;;;;;;1.63;1.53;;;;;;;9.39;100.00;97923.53;5111335;28;20204;-64
2022/11/23 09:03:15;;;;;;;1.07;0.93;;;;;;;9.48;100.00;97921.91;5111553;27;20229;-61
2022/11/23 09:05:41;;;;;;;1.10;1.10;;;;;;;9.53;100.00;97922.34;5111348;28;20270;-58
2022/11/23 09:08:08;;;;;;;0.83;0.83;;;;;;;9.48;100.00;97924.47;5111432;27;20217;-64
2022/11/23 09:10:36;;;;;;;2.17;1.03;;;;;;;9.48;100.00;97920.19;5111473;28;20198;-63
2022/11/23 09:13:03;;;;;;;0.97;0.93;;;;;;;9.40;100.00;97921.78;5111392;28;20489;-64
2022/11/23 09:15:30;;;;;;;0.70;0.70;;;;;;;9.32;100.00;97925.00;5111138;28;20975;-57
2022/11/23 09:17:57;;;;;;;1.03;0.93;;;;;;;9.48;100.00;97921.91;5110922;28;20201;-57
2022/11/23 09:20:26;;;;;;;1.70;1.50;;;;;;;9.31;100.00;97913.19;5111077;28;20201;-64
2022/11/23 09:22:53;;;;;;;1.07;0.97;;;;;;;9.42;100.00;97915.59;5110885;28;20228;-58
2022/11/23 09:25:21;;;;;;;2.50;1.33;;;;;;;9.50;100.00;97917.50;5110995;28;20201;-57
2022/11/23 09:27:48;;;;;;;2.20;2.00;;;;;;;9.45;100.00;97920.47;5110725;28;20201;-58
2022/11/23 09:30:16;;;;;;;1.50;0.97;;;;;;;9.49;100.00;97915.91;5111059;28;20201;-57
2022/11/23 09:32:43;;;;;;;1.77;0.70;;;;;;;9.44;100.00;97915.47;5110670;28;20250;-64
2022/11/23 09:35:10;;;;;;;1.10;1.03;;;;;;;9.57;100.00;97923.69;5110869;28;20209;-64
2022/11/23 09:37:38;;;;;;;0.90;0.90;;;;;;;9.48;100.00;97922.75;5110738;28;20282;-64
2022/11/23 09:40:06;;;;;;;2.10;1.17;;;;;;;9.55;100.00;97909.47;5111010;28;20258;-58
2022/11/23 09:42:51;;;;;;;1.43;1.33;;;;;;;9.52;100.00;97913.09;5110916;28;20242;-58
2022/11/23 09:45:26;;;;;;;0.97;0.97;;;;;;;9.60;100.00;97918.34;5110164;28;20680;-58
2022/11/23 09:48:04;;;;;;;1.63;0.70;;;;;;;9.58;100.00;97919.41;5110458;28;20208;-63
2022/11/23 09:50:43;;;;;;;4.60;1.00;;;;;;;9.61;100.00;97914.81;5110726;28;20196;-57
2022/11/23 09:53:15;;;;;;;1.10;1.00;;;;;;;9.69;100.00;97907.31;5110623;28;20221;-63
2022/11/23 09:55:44;;;;;;;1.80;1.40;;;;;;;9.58;100.00;97904.88;5110632;28;20205;-64
2022/11/23 09:58:15;;;;;;;1.53;1.27;;;;;;;9.51;100.00;97904.63;5110719;28;20757;-58
2022/11/23 10:00:46;;;;;;;1.77;0.93;;;;;;;9.47;100.00;97889.69;5110341;28;20209;-63
2022/11/23 10:03:15;;;;;;;1.43;1.33;;;;;;;9.46;100.00;97891.44;5110310;27;20240;-63
2022/11/23 10:05:47;;;;;;;3.63;1.43;;;;;;;9.43;100.00;97883.25;5110500;28;20233;-64
2022/11/23 10:08:31;;;;;;;1.87;1.60;;;;;;;9.50;100.00;97882.59;5110476;28;20220;-58
2022/11/23 10:11:10;;;;;;;0.67;0.67;;;;;;;9.32;100.00;97876.53;5110175;28;20553;-57
2022/11/23 10:13:44;;;;;;;0.87;0.80;;;;;;;9.32;100.00;97868.09;5110417;28;20224;-58
2022/11/23 10:16:31;;;;;;;1.50;0.97;;;;;;;9.37;100.00;97860.84;5110268;28;20208;-63
2022/11/23 10:19:04;;;;;;;3.20;1.70;;;;;;;9.41;100.00;97867.28;5110405;28;20232;-64
2022/11/23 10:21:41;;;;;;;1.17;1.10;;;;;;;9.41;100.00;97865.53;5109984;28;20574;-58
2022/11/23 10:24:19;;;;;;;1.03;0.93;;;;;;;9.25;100.00;97858.41;5110384;28;20730;-63
2022/11/23 10:26:48;;;;;;;1.57;1.40;;;;;;;9.38;100.00;97857.34;5110270;28;20647;-63
2022/11/23 10:29:20;;;;;;;1.07;0.90;;;;;;;9.37;100.00;97855.75;5109946;28;20675;-57
2022/11/23 10:31:49;;;;;;;1.93;1.10;;;;;;;9.36;100.00;97865.13;5110303;28;20623;-64
2022/11/23 10:34:20;;;;;;;1.57;1.40;;;;;;;9.21;100.00;97867.25;5110125;28;20217;-57
2022/11/23 10:36:47;;;;;;;0.93;0.93;;;;;;;9.22;100.00;97862.94;5110084;28;20201;-58
2022/11/23 10:39:21;;;;;;;1.07;0.97;;;;;;;9.10;100.00;97864.81;5110120;28;20217;-58
2022/11/23 10:41:49;;;;;;;1.97;0.67;;;;;;;9.16;100.00;97868.56;5110093;28;20197;-57
2022/11/23 10:44:29;;;;;;;0.90;0.90;;;;;;;9.15;100.00;97872.06;5109963;28;20217;-58
2022/11/23 10:46:56;;;;;;;1.37;1.27;;;;;;;9.06;100.00;97873.66;5109824;28;20814;-58
2022/11/23 10:49:26;;;;;;;1.33;1.23;;;;;;;9.11;100.00;97869.00;5109871;28;20212;-64
2022/11/23 10:51:56;;;;;;;0.97;0.90;;;;;;;9.10;100.00;97869.91;5109956;28;20267;-57
2022/11/23 10:54:33;;;;;;;1.30;0.97;;;;;;;9.12;100.00;97872.34;5109572;28;20228;-64
2022/11/23 10:57:02;;;;;;;3.97;1.53;;;;;;;9.03;100.00;97873.94;5111291;28;20200;-64
2022/11/23 10:59:33;;;;;;;1.10;0.80;;;;;;;9.02;100.00;97887.63;5113916;28;20232;-57
2022/11/23 11:02:15;;;;;;;1.67;1.47;;;;;;;8.93;100.00;97888.38;5113837;28;20193;-57
2022/11/23 11:04:42;;;;;;;0.70;0.70;;;;;;;8.99;100.00;97900.63;5113900;28;20309;-64
2022/11/23 11:07:27;;;;;;;0.50;0.50;;;;;;;9.01;100.00;97896.19;5113848;28;20197;-57
2022/11/23 11:09:57;;;;;;;1.40;0.80;;;;;;;8.96;100.00;97898.31;5113679;27;20217;-64
2022/11/23 11:12:25;;;;;;;0.43;0.43;;;;;;;8.80;100.00;97891.16;5113347;28;20712;-57
2022/11/23 11:15:04;;;;;;;3.23;2.23;;;;;;;8.84;100.00;97895.91;5113448;28;20213;-57
2022/11/23 11:17:33;;;;;;;1.60;0.77;;;;;;;8.87;100.00;97899.09;5113606;28;20272;-58
2022/11/23 11:20:00;;;;;;;1.40;1.13;;;;;;;8.80;100.00;97899.63;5113599;28;20588;-57
2022/11/23 11:22:34;;;;;;;1.63;1.13;;;;;;;8.83;100.00;97886.63;5113371;28;20233;-58
2022/11/23 11:25:04;;;;;;;0.87;0.87;;;;;;;8.82;100.00;97882.47;5113548;28;20308;-63
2022/11/23 11:27:31;;;;;;;2.93;1.37;;;;;;;8.97;100.00;97889.75;5113331;28;20628;-57
2022/11/23 11:30:05;;;;;;;2.43;0.97;;;;;;;9.03;100.00;97889.22;5113153;28;20263;-58
2022/11/23 11:32:42;;;;;;;0.83;0.83;;;;;;;9.16;100.00;97894.06;5113435;28;20198;-58
2022/11/23 11:35:14;;;;;;;1.10;1.00;;;;;;;9.14;100.00;97890.88;5113486;28;20193;-58
2022/11/23 11:37:44;;;;;;;1.30;1.00;;;;;;;9.14;100.00;97886.56;5113045;28;20197;-63
2022/11/23 11:40:19;;;;;;;1.17;0.50;;;;;;;9.15;100.00;97892.47;5113525;28;20669;-58